Time;durP1;ratioP1;P1;durP2;ratioP2;P2;SDS_P1;SDS_P2;PMS_P1;PMS_P2;Temp;Humidity;BMP_temperature;BMP_pressure;BME280_temperature;BME280_humidity;BME280_pressure;Samples;Min_cycle;Max_cycle;Signal;HPM_P1;HPM_P2
2023/10/27 10:00:08;;;;;;;27.80;20.70;;;;;;;11.01;88.22;94828.21;102304;1304;644772;-80
2023/10/27 10:03:17;;;;;;;26.40;19.70;;;;;;;11.14;88.17;94809.70;99105;1287;5340634;-82
2023/10/27 10:06:32;;;;;;;25.80;19.90;;;;;;;11.08;88.38;94804.28;102708;1290;97103;-79
2023/10/27 10:23:00;;;;;;;28.50;21.00;;;;;;;10.87;88.69;94761.58;101836;1297;642214;-82
2023/10/27 10:26:17;;;;;;;25.60;20.10;;;;;;;10.85;88.71;94751.71;103545;1279;97756;-81
2023/10/27 10:29:08;;;;;;;25.60;19.10;;;;;;;10.83;88.91;94743.73;103024;1286;96915;-81
2023/10/27 10:32:15;;;;;;;25.50;18.40;;;;;;;10.84;89.02;94737.90;102751;1287;99067;-80
2023/10/27 10:35:32;;;;;;;27.00;19.50;;;;;;;10.85;89.02;94726.23;98670;1289;5374480;-83
2023/10/27 10:59:04;;;;;;;18.50;16.30;;;;;;;10.95;89.74;94662.10;102153;1292;638636;-82
2023/10/27 11:01:33;;;;;;;20.50;15.90;;;;;;;10.95;89.92;94655.89;103900;1278;95964;-82
2023/10/27 11:04:11;;;;;;;22.20;15.80;;;;;;;10.96;90.22;94656.38;103784;1277;97226;-80
2023/10/27 11:07:20;;;;;;;23.60;18.80;;;;;;;10.98;90.14;94651.14;104279;1269;98270;-83
2023/10/27 11:10:38;;;;;;;23.80;19.40;;;;;;;10.98;90.30;94642.67;103073;1284;100420;-83
2023/10/27 11:23:14;;;;;;;29.40;21.90;;;;;;;11.12;90.14;94624.35;101996;1295;636829;-81
2023/10/27 11:26:26;;;;;;;29.20;21.80;;;;;;;11.13;90.13;94618.30;104330;1270;95883;-80
2023/10/27 11:29:34;;;;;;;25.70;19.70;;;;;;;11.14;90.31;94609.59;103413;1280;96158;-81
2023/10/27 11:32:43;;;;;;;24.80;17.60;;;;;;;11.14;90.21;94604.20;102748;1284;98336;-80
2023/10/27 11:47:55;;;;;;;23.00;13.90;;;;;;;11.16;90.13;94592.62;101871;1303;638814;-81
2023/10/27 11:50:48;;;;;;;18.50;13.40;;;;;;;11.15;90.29;94587.45;108187;1260;93523;-79
2023/10/27 11:53:57;;;;;;;19.00;12.50;;;;;;;11.17;90.54;94591.05;107795;1268;93635;-80
2023/10/27 11:57:05;;;;;;;17.60;11.70;;;;;;;11.20;90.52;94592.87;107248;1274;98558;-79
2023/10/27 12:00:08;;;;;;;16.30;11.10;;;;;;;11.23;90.38;94583.71;106818;1277;101402;-80
2023/10/27 12:03:22;;;;;;;16.90;11.40;;;;;;;11.26;90.37;94584.10;102341;1280;100246;-79
2023/10/27 12:16:17;;;;;;;19.20;13.40;;;;;;;11.40;90.13;94575.02;101670;1294;635957;-80
2023/10/27 12:19:13;;;;;;;20.60;13.00;;;;;;;11.38;90.17;94571.84;103751;1280;96084;-81
2023/10/27 12:22:05;;;;;;;19.60;12.90;;;;;;;11.37;90.28;94568.83;103031;1286;97166;-81
2023/10/27 12:25:12;;;;;;;17.80;12.70;;;;;;;11.36;90.31;94568.02;103131;1286;100444;-80
2023/10/27 12:28:22;;;;;;;16.30;11.50;;;;;;;11.36;90.39;94563.28;102496;1287;101898;-82
2023/10/27 12:54:57;;;;;;;18.80;15.10;;;;;;;11.76;90.03;94509.79;102093;1289;640557;-79
2023/10/27 12:58:08;;;;;;;17.00;13.90;;;;;;;11.96;90.17;94496.74;99354;1279;5331535;-82
2023/10/27 13:00:37;;;;;;;16.20;12.30;;;;;;;11.96;90.32;94488.48;102657;1286;99656;-85
2023/10/27 13:03:51;;;;;;;16.20;12.50;;;;;;;11.96;90.50;94486.27;102619;1288;100691;-81
2023/10/27 13:07:03;;;;;;;13.20;9.40;;;;;;;11.92;90.61;94497.03;102047;1290;101638;-80
2023/10/27 13:25:25;;;;;;;11.70;9.80;;;;;;;11.90;90.59;94483.48;102217;1295;636980;-79
2023/10/27 13:28:20;;;;;;;15.70;12.00;;;;;;;11.91;90.74;94479.96;104696;1266;95864;-81
2023/10/27 13:31:29;;;;;;;15.40;9.30;;;;;;;11.93;90.69;94480.42;104572;1266;95868;-80
2023/10/27 13:34:37;;;;;;;13.40;9.20;;;;;;;11.95;90.66;94486.48;103192;1284;98659;-79
2023/10/27 13:37:46;;;;;;;10.60;7.50;;;;;;;11.95;90.72;94485.92;102316;1289;100463;-80
2023/10/27 14:04:20;;;;;;;2.80;2.50;;;;;;;12.08;90.03;94498.22;102946;1296;640355;-80
2023/10/27 14:07:28;;;;;;;3.50;3.20;;;;;;;12.07;89.90;94499.10;99233;1286;5343371;-80
2023/10/27 14:10:37;;;;;;;4.80;3.40;;;;;;;12.03;90.29;94505.11;103079;1285;96878;-79
2023/10/27 14:13:29;;;;;;;3.70;3.30;;;;;;;11.96;90.29;94511.41;102308;1301;98754;-80
2023/10/27 14:16:37;;;;;;;3.50;3.10;;;;;;;11.90;90.44;94517.16;102281;1292;100360;-80
2023/10/27 14:40:25;;;;;;;9.30;7.00;;;;;;;12.05;89.87;94509.70;103048;1286;642585;-80
2023/10/27 14:43:32;;;;;;;7.20;6.00;;;;;;;12.12;89.60;94515.79;100167;1276;5340654;-83
2023/10/27 14:46:39;;;;;;;6.90;5.40;;;;;;;12.01;89.67;94523.55;102881;1286;96084;-80
2023/10/27 14:49:45;;;;;;;10.00;6.20;;;;;;;11.90;89.86;94525.10;102339;1287;98687;-80
2023/10/27 15:16:05;;;;;;;6.10;4.50;;;;;;;11.79;89.88;94536.85;102510;1291;640148;-80
2023/10/27 15:19:15;;;;;;;6.10;4.10;;;;;;;11.69;90.07;94560.23;100732;1268;5333914;-82
2023/10/27 15:22:06;;;;;;;4.20;3.20;;;;;;;11.53;90.36;94566.45;103564;1277;95994;-81
2023/10/27 15:25:15;;;;;;;2.80;2.40;;;;;;;11.43;90.58;94561.91;103399;1280;98579;-82
2023/10/27 15:44:27;;;;;;;3.40;3.10;;;;;;;11.16;90.74;94636.94;101603;1301;636494;-81
2023/10/27 15:47:37;;;;;;;5.60;3.70;;;;;;;11.11;91.03;94651.45;102921;1286;96928;-80
2023/10/27 16:25:32;;;;;;;14.00;10.40;;;;;;;11.44;91.00;94725.85;102905;1284;641702;-82
2023/10/27 16:28:40;;;;;;;14.10;9.90;;;;;;;11.55;90.74;94746.14;100277;1269;5341696;-81
2023/10/27 16:31:49;;;;;;;15.20;10.50;;;;;;;11.48;91.03;94750.63;103687;1292;98619;-82
2023/10/27 16:43:57;;;;;;;17.90;12.50;;;;;;;11.29;91.21;94780.56;101555;1300;640339;-79
2023/10/27 16:47:04;;;;;;;18.90;12.40;;;;;;;11.23;91.13;94789.09;103708;1278;96833;-80
2023/10/27 16:50:13;;;;;;;17.20;11.80;;;;;;;11.16;91.43;94793.48;103905;1278;96026;-82
2023/10/27 16:53:21;;;;;;;15.60;11.30;;;;;;;11.13;91.40;94803.59;103684;1279;98797;-79
